createdAt,value
2023-01-29T00:01:52.259Z,53.60
2023-01-29T00:04:19.132Z,50.00
2023-01-29T00:06:45.634Z,50.40
2023-01-29T00:09:13.578Z,51.00
2023-01-29T00:11:40.936Z,49.53
2023-01-29T00:14:07.804Z,45.17
2023-01-29T00:16:34.472Z,46.45
2023-01-29T00:19:02.585Z,47.78
2023-01-29T00:21:31.141Z,45.30
2023-01-29T00:23:58.849Z,47.22
2023-01-29T00:26:26.452Z,49.67
2023-01-29T00:28:53.357Z,49.85
2023-01-29T00:31:22.738Z,48.67
2023-01-29T00:33:51.498Z,52.28
2023-01-29T00:36:19.700Z,48.88
2023-01-29T00:38:54.724Z,48.05
2023-01-29T00:41:40.981Z,47.72
2023-01-29T00:44:28.976Z,50.10
2023-01-29T00:46:55.614Z,47.33
2023-01-29T00:49:22.603Z,47.30
2023-01-29T00:52:09.163Z,39.27
2023-01-29T00:54:36.629Z,49.40
2023-01-29T01:01:58.368Z,53.38
2023-01-29T01:04:24.949Z,49.58
2023-01-29T01:06:55.111Z,48.35
2023-01-29T01:09:43.871Z,50.78
2023-01-29T01:12:10.385Z,50.47
2023-01-29T01:14:37.981Z,54.72
2023-01-29T01:17:04.572Z,52.80
2023-01-29T01:19:31.163Z,50.80
2023-01-29T01:21:57.823Z,48.50
2023-01-29T01:24:24.524Z,54.30
2023-01-29T01:26:51.120Z,53.47
2023-01-29T01:29:17.735Z,52.17
2023-01-29T01:31:44.994Z,47.60
2023-01-29T01:34:11.621Z,40.00
2023-01-29T01:36:38.128Z,43.67
2023-01-29T01:39:04.903Z,46.75
2023-01-29T01:41:31.420Z,48.08
2023-01-29T01:44:01.931Z,46.88
2023-01-29T01:46:34.614Z,51.83
2023-01-29T01:49:15.441Z,46.85
2023-01-29T01:51:53.186Z,49.97
2023-01-29T01:57:09.193Z,43.85
2023-01-29T01:59:39.930Z,45.28
2023-01-29T02:02:26.848Z,47.80
2023-01-29T02:05:12.566Z,46.40
2023-01-29T02:08:03.318Z,47.40
2023-01-29T02:10:45.556Z,50.53
2023-01-29T02:13:12.793Z,48.15
2023-01-29T02:15:42.022Z,50.95
2023-01-29T02:18:09.301Z,51.15
2023-01-29T02:20:36.687Z,38.08
2023-01-29T02:23:15.065Z,50.55
2023-01-29T02:25:53.465Z,52.10
2023-01-29T02:28:25.460Z,51.08
2023-01-29T02:31:29.672Z,46.55
2023-01-29T02:34:01.757Z,49.63
2023-01-29T02:36:48.094Z,50.65
2023-01-29T02:39:28.489Z,47.30
2023-01-29T02:42:00.797Z,52.97
2023-01-29T02:44:37.363Z,52.55
2023-01-29T02:47:10.537Z,56.78
2023-01-29T02:50:06.630Z,55.25
2023-01-29T02:52:38.211Z,55.00
2023-01-29T02:55:12.555Z,61.65
2023-01-29T02:57:44.484Z,55.22
2023-01-29T03:00:19.953Z,58.22
2023-01-29T03:02:57.288Z,50.90
2023-01-29T03:05:31.078Z,63.38
2023-01-29T03:08:04.109Z,59.65
2023-01-29T03:10:42.212Z,59.28
2023-01-29T03:13:17.513Z,56.72
2023-01-29T03:15:51.439Z,54.63
2023-01-29T03:18:22.687Z,53.70
2023-01-29T03:20:58.466Z,53.13
2023-01-29T03:23:54.186Z,55.65
2023-01-29T03:26:41.085Z,57.40
2023-01-29T03:29:28.323Z,55.63
2023-01-29T03:32:06.641Z,49.97
2023-01-29T03:34:52.103Z,50.03
2023-01-29T03:37:26.103Z,58.33
2023-01-29T03:39:52.632Z,54.13
2023-01-29T03:42:30.071Z,60.10
2023-01-29T03:45:05.711Z,57.88
2023-01-29T03:47:50.507Z,60.53
2023-01-29T03:50:31.534Z,62.95
2023-01-29T03:53:32.779Z,56.47
2023-01-29T03:56:02.830Z,65.20
2023-01-29T03:58:49.670Z,69.30
2023-01-29T04:01:25.437Z,58.20
2023-01-29T04:04:15.086Z,51.30
2023-01-29T04:06:45.615Z,58.20
2023-01-29T04:09:20.529Z,56.90
2023-01-29T04:11:52.464Z,56.45
2023-01-29T04:14:19.138Z,66.80
2023-01-29T04:16:49.995Z,78.68
2023-01-29T04:19:17.018Z,74.90
2023-01-29T04:21:44.169Z,49.87
2023-01-29T04:24:13.558Z,50.00
2023-01-29T04:27:21.245Z,60.58
2023-01-29T04:29:54.589Z,60.67
2023-01-29T04:32:31.366Z,52.80
2023-01-29T04:35:22.512Z,55.60
2023-01-29T04:38:14.236Z,59.03
2023-01-29T04:40:46.466Z,58.38
2023-01-29T04:43:12.901Z,59.60
2023-01-29T04:45:48.457Z,61.67
2023-01-29T04:48:20.884Z,60.00
2023-01-29T04:50:59.415Z,55.70
2023-01-29T04:53:45.859Z,61.75
2023-01-29T04:56:48.626Z,58.55
2023-01-29T04:59:28.197Z,59.20
2023-01-29T05:01:54.908Z,61.17
2023-01-29T05:04:22.816Z,55.90
2023-01-29T05:09:17.593Z,58.67
2023-01-29T05:11:46.279Z,54.83
2023-01-29T05:14:14.828Z,59.30
2023-01-29T05:16:50.413Z,65.93
2023-01-29T05:19:17.714Z,59.67
2023-01-29T05:21:46.878Z,58.17
2023-01-29T05:24:17.280Z,52.85
2023-01-29T05:27:05.525Z,56.35
2023-01-29T05:29:32.220Z,54.75
2023-01-29T05:31:58.861Z,55.35
2023-01-29T05:34:25.549Z,51.70
2023-01-29T05:36:52.200Z,55.45
2023-01-29T05:39:18.775Z,57.90
2023-01-29T05:41:45.472Z,59.45
2023-01-29T05:44:12.421Z,55.00
2023-01-29T05:46:39.367Z,54.90
2023-01-29T05:49:06.159Z,42.67
2023-01-29T05:51:32.738Z,57.67
2023-01-29T05:53:59.370Z,60.00
2023-01-29T05:56:25.841Z,62.35
2023-01-29T05:58:52.408Z,55.83
2023-01-29T06:01:21.072Z,61.05
2023-01-29T06:03:48.171Z,57.30
2023-01-29T06:06:15.533Z,59.70
2023-01-29T06:08:42.540Z,60.65
2023-01-29T06:11:11.341Z,65.10
2023-01-29T06:13:38.307Z,52.25
2023-01-29T06:16:09.132Z,53.47
2023-01-29T06:18:36.728Z,57.38
2023-01-29T06:21:04.886Z,58.17
2023-01-29T06:23:32.086Z,57.88
2023-01-29T06:26:06.381Z,53.83
2023-01-29T06:28:33.074Z,58.70
2023-01-29T06:31:23.822Z,57.85
2023-01-29T06:33:51.473Z,54.50
2023-01-29T06:36:18.093Z,60.40
2023-01-29T06:38:44.582Z,55.13
2023-01-29T06:41:12.709Z,59.75
2023-01-29T06:43:39.587Z,58.47
2023-01-29T06:46:08.223Z,43.23
2023-01-29T06:48:35.146Z,62.75
2023-01-29T06:51:03.782Z,59.67
2023-01-29T06:53:30.636Z,52.83
2023-01-29T06:55:57.147Z,58.65
2023-01-29T06:58:23.749Z,56.50
2023-01-29T07:00:50.246Z,56.20
2023-01-29T07:03:16.725Z,59.60
2023-01-29T07:05:43.210Z,63.10
2023-01-29T07:08:09.759Z,52.53
2023-01-29T07:10:36.602Z,61.55
2023-01-29T07:13:03.771Z,50.78
2023-01-29T07:15:30.213Z,64.30
2023-01-29T07:17:59.797Z,56.05
2023-01-29T07:20:30.238Z,60.42
2023-01-29T07:22:57.931Z,65.25
2023-01-29T07:25:25.301Z,48.97
2023-01-29T07:27:51.923Z,61.38
2023-01-29T07:33:43.742Z,51.80
2023-01-29T07:36:13.621Z,53.88
2023-01-29T07:38:41.444Z,62.38
2023-01-29T07:43:35.633Z,54.35
2023-01-29T07:46:07.270Z,50.50
2023-01-29T07:48:34.851Z,57.35
2023-01-29T07:51:01.411Z,56.00
2023-01-29T07:53:30.148Z,55.47
2023-01-29T07:55:59.797Z,57.28
2023-01-29T07:58:26.367Z,56.40
2023-01-29T08:00:52.919Z,35.50
2023-01-29T08:03:23.092Z,46.13
2023-01-29T08:05:51.229Z,55.63
2023-01-29T08:08:19.682Z,54.17
2023-01-29T08:10:46.285Z,54.90
2023-01-29T08:13:13.166Z,54.38
2023-01-29T08:15:43.201Z,53.45
2023-01-29T08:18:09.936Z,55.45
2023-01-29T08:20:36.490Z,53.72
2023-01-29T08:23:07.040Z,52.28
2023-01-29T08:25:35.999Z,52.83
2023-01-29T08:28:02.977Z,51.45
2023-01-29T08:30:31.970Z,56.63
2023-01-29T08:32:58.953Z,50.70
2023-01-29T08:35:26.493Z,53.07
2023-01-29T08:37:59.417Z,48.25
2023-01-29T08:40:28.820Z,54.60
2023-01-29T08:43:04.105Z,52.70
2023-01-29T08:45:35.036Z,76.10
2023-01-29T08:48:01.677Z,60.45
2023-01-29T08:50:30.709Z,54.03
2023-01-29T08:53:02.009Z,61.70
2023-01-29T08:55:29.234Z,51.25
2023-01-29T08:57:57.410Z,49.95
2023-01-29T09:00:26.642Z,58.33
2023-01-29T09:02:55.473Z,51.00
2023-01-29T09:05:22.200Z,66.57
2023-01-29T09:07:48.825Z,61.70
2023-01-29T09:10:16.155Z,57.20
2023-01-29T09:12:45.337Z,57.22
2023-01-29T09:15:12.170Z,54.35
2023-01-29T09:17:41.172Z,52.10
2023-01-29T09:20:08.723Z,52.03
2023-01-29T09:22:36.145Z,53.80
2023-01-29T09:25:02.963Z,53.85
2023-01-29T09:27:30.650Z,66.05
2023-01-29T09:29:57.709Z,61.80
2023-01-29T09:32:52.124Z,59.97
2023-01-29T09:35:12.213Z,56.43
2023-01-29T09:37:39.568Z,56.33
2023-01-29T09:40:07.520Z,51.33
2023-01-29T09:45:12.734Z,50.60
2023-01-29T09:47:39.712Z,53.80
2023-01-29T09:50:08.943Z,39.40
2023-01-29T09:52:47.664Z,52.78
2023-01-29T09:55:17.365Z,48.08
2023-01-29T09:57:51.732Z,52.63
2023-01-29T10:00:36.986Z,49.40
2023-01-29T10:03:24.089Z,48.97
2023-01-29T10:05:59.579Z,45.22
2023-01-29T10:08:46.577Z,60.58
2023-01-29T10:11:18.967Z,34.15
2023-01-29T10:14:00.861Z,55.00
2023-01-29T10:17:00.205Z,56.38
2023-01-29T10:20:05.545Z,51.25
2023-01-29T10:22:39.167Z,56.08
2023-01-29T10:25:17.107Z,76.07
2023-01-29T10:27:50.331Z,63.13
2023-01-29T10:30:32.348Z,59.35
2023-01-29T10:33:03.127Z,61.67
2023-01-29T10:35:55.787Z,56.80
2023-01-29T10:38:34.439Z,30.63
2023-01-29T10:41:19.965Z,39.63
2023-01-29T10:43:55.412Z,55.15
2023-01-29T10:46:35.000Z,51.83
2023-01-29T10:49:25.650Z,56.85
2023-01-29T10:52:20.542Z,60.72
2023-01-29T10:54:56.363Z,48.53
2023-01-29T10:57:42.183Z,54.92
2023-01-29T11:00:19.095Z,41.65
2023-01-29T11:02:48.748Z,50.77
2023-01-29T11:05:33.730Z,54.10
2023-01-29T11:08:05.990Z,47.13
2023-01-29T11:10:41.712Z,50.03
2023-01-29T11:13:14.427Z,50.03
2023-01-29T11:15:41.087Z,42.97
2023-01-29T11:18:16.435Z,45.05
2023-01-29T11:20:45.265Z,34.25
2023-01-29T11:23:27.266Z,44.92
2023-01-29T11:25:55.611Z,47.35
2023-01-29T11:28:43.525Z,48.05
2023-01-29T11:31:38.173Z,40.28
2023-01-29T11:34:20.773Z,55.15
2023-01-29T11:36:57.840Z,49.50
2023-01-29T11:39:26.152Z,40.47
2023-01-29T11:42:01.061Z,50.22
2023-01-29T11:44:31.130Z,41.40
2023-01-29T11:47:10.640Z,49.35
2023-01-29T11:49:38.235Z,45.45
2023-01-29T11:52:08.665Z,52.15
2023-01-29T11:54:40.770Z,36.70
2023-01-29T11:57:27.758Z,42.45
2023-01-29T11:59:56.947Z,48.50
2023-01-29T12:02:23.369Z,44.00
2023-01-29T12:04:50.968Z,40.75
2023-01-29T12:07:19.032Z,45.95
2023-01-29T12:09:57.238Z,47.75
2023-01-29T12:12:35.522Z,53.72
2023-01-29T12:15:27.175Z,50.85
2023-01-29T12:18:14.192Z,52.83
2023-01-29T12:21:01.632Z,46.92
2023-01-29T12:23:48.995Z,46.25
2023-01-29T12:26:27.638Z,65.13
2023-01-29T12:29:07.888Z,60.72
2023-01-29T12:31:46.507Z,43.63
2023-01-29T12:34:32.041Z,50.70
2023-01-29T12:37:29.865Z,40.90
2023-01-29T12:39:56.835Z,56.75
2023-01-29T12:42:24.523Z,43.60
2023-01-29T12:45:01.375Z,42.35
2023-01-29T12:47:42.188Z,46.73
2023-01-29T12:50:21.393Z,47.05
2023-01-29T12:53:34.282Z,46.67
2023-01-29T12:56:09.630Z,48.40
2023-01-29T12:58:42.239Z,49.42
2023-01-29T13:01:27.891Z,47.80
2023-01-29T13:04:06.347Z,46.40
2023-01-29T13:06:42.645Z,45.03
2023-01-29T13:09:23.984Z,47.95
2023-01-29T13:11:56.495Z,51.50
2023-01-29T13:14:32.185Z,39.05
2023-01-29T13:17:10.012Z,46.92
2023-01-29T13:22:17.001Z,46.80
2023-01-29T13:24:49.975Z,43.83
2023-01-29T13:27:27.866Z,43.47
2023-01-29T13:29:56.036Z,47.17
2023-01-29T13:32:34.975Z,41.30
2023-01-29T13:35:11.810Z,46.20
2023-01-29T13:37:47.000Z,46.20
2023-01-29T13:40:27.756Z,37.15
2023-01-29T13:42:56.307Z,45.90
2023-01-29T13:45:28.990Z,44.53
2023-01-29T13:48:09.844Z,44.72
2023-01-29T13:50:40.162Z,45.63
2023-01-29T13:53:09.190Z,37.33
2023-01-29T13:55:38.488Z,44.22
2023-01-29T13:58:06.721Z,45.03
2023-01-29T14:00:35.458Z,43.17
2023-01-29T14:03:02.003Z,42.55
2023-01-29T14:05:31.823Z,40.17
2023-01-29T14:08:39.662Z,42.15
2023-01-29T14:11:18.493Z,41.05
2023-01-29T14:13:46.999Z,43.60
2023-01-29T14:16:14.536Z,40.88
2023-01-29T14:19:00.576Z,43.53
2023-01-29T14:21:32.199Z,40.63
2023-01-29T14:24:19.515Z,46.65
2023-01-29T14:26:48.405Z,45.80
2023-01-29T14:29:35.677Z,42.17
2023-01-29T14:32:09.309Z,35.70
2023-01-29T14:34:41.671Z,44.45
2023-01-29T14:37:29.350Z,40.35
2023-01-29T14:42:28.819Z,41.80
2023-01-29T14:44:55.290Z,40.60
2023-01-29T14:47:41.736Z,42.35
2023-01-29T14:50:31.835Z,42.17
2023-01-29T14:53:10.549Z,40.78
2023-01-29T14:55:43.858Z,45.03
2023-01-29T14:58:16.964Z,43.35
2023-01-29T15:00:46.339Z,40.35
2023-01-29T15:03:22.893Z,41.58
2023-01-29T15:05:50.561Z,47.85
2023-01-29T15:08:39.028Z,51.70
2023-01-29T15:11:30.664Z,40.92
2023-01-29T15:14:06.401Z,43.83
2023-01-29T15:16:45.946Z,44.00
2023-01-29T15:19:24.601Z,42.65
2023-01-29T15:22:05.371Z,41.03
2023-01-29T15:24:33.684Z,47.38
2023-01-29T15:27:01.073Z,43.65
2023-01-29T15:29:28.629Z,40.20
2023-01-29T15:31:56.867Z,42.30
2023-01-29T15:34:23.800Z,88.72
2023-01-29T15:36:50.627Z,44.72
2023-01-29T15:39:17.095Z,43.00
2023-01-29T15:41:45.093Z,46.92
2023-01-29T15:46:52.971Z,45.20
2023-01-29T15:49:29.151Z,46.78
2023-01-29T15:51:58.596Z,41.55
2023-01-29T15:54:30.415Z,39.72
2023-01-29T15:56:58.008Z,35.10
2023-01-29T15:59:45.257Z,43.95
2023-01-29T16:02:21.678Z,43.25
2023-01-29T16:04:48.413Z,36.72
2023-01-29T16:07:15.585Z,34.75
2023-01-29T16:09:43.038Z,45.47
2023-01-29T16:12:12.680Z,36.88
2023-01-29T16:14:40.796Z,26.80
2023-01-29T16:17:30.671Z,15.38
2023-01-29T16:20:02.128Z,11.75
2023-01-29T16:22:35.406Z,9.38
2023-01-29T16:25:12.596Z,10.18
2023-01-29T16:27:43.428Z,37.38
2023-01-29T16:30:14.302Z,14.98
2023-01-29T16:32:40.857Z,10.07
2023-01-29T16:35:13.504Z,10.93
2023-01-29T16:37:40.022Z,10.23
2023-01-29T16:40:15.685Z,10.38
2023-01-29T16:42:42.433Z,13.05
2023-01-29T16:45:41.281Z,10.90
2023-01-29T16:48:34.478Z,11.90
2023-01-29T16:51:33.127Z,14.07
2023-01-29T16:54:07.843Z,11.95
2023-01-29T16:56:34.940Z,13.15
2023-01-29T16:59:04.829Z,11.27
2023-01-29T17:01:32.735Z,12.15
2023-01-29T17:06:31.989Z,11.50
2023-01-29T17:08:58.812Z,8.50
2023-01-29T17:11:38.200Z,15.38
2023-01-29T17:14:10.890Z,12.68
2023-01-29T17:16:50.402Z,12.13
2023-01-29T17:19:22.188Z,10.70
2023-01-29T17:21:48.757Z,16.20
2023-01-29T17:24:15.472Z,15.77
2023-01-29T17:26:42.323Z,17.27
2023-01-29T17:29:15.671Z,10.48
2023-01-29T17:31:43.076Z,16.23
2023-01-29T17:34:14.207Z,17.42
2023-01-29T17:36:41.792Z,18.42
2023-01-29T17:39:28.959Z,15.52
2023-01-29T17:41:57.747Z,15.97
2023-01-29T17:44:26.256Z,47.83
2023-01-29T17:46:52.870Z,12.43
2023-01-29T17:49:35.924Z,17.10
2023-01-29T17:52:02.534Z,17.75
2023-01-29T17:54:30.554Z,18.17
2023-01-29T17:59:28.667Z,17.85
2023-01-29T18:01:55.465Z,15.82
2023-01-29T18:04:22.363Z,17.48
2023-01-29T18:06:51.046Z,17.90
2023-01-29T18:09:20.619Z,15.90
2023-01-29T18:11:48.185Z,16.80
2023-01-29T18:16:57.270Z,16.60
2023-01-29T18:19:39.452Z,19.00
2023-01-29T18:22:08.900Z,19.80
2023-01-29T18:24:36.264Z,18.20
2023-01-29T18:27:02.993Z,17.95
2023-01-29T18:29:30.337Z,18.27
2023-01-29T18:31:56.950Z,20.25
2023-01-29T18:34:23.507Z,19.55
2023-01-29T18:36:52.821Z,18.55
2023-01-29T18:39:20.424Z,21.98
2023-01-29T18:41:48.145Z,28.65
2023-01-29T18:44:14.705Z,22.05
2023-01-29T18:46:41.270Z,21.50
2023-01-29T18:49:07.910Z,20.42
2023-01-29T18:51:35.721Z,18.40
2023-01-29T18:58:41.006Z,21.67
2023-01-29T19:09:24.909Z,27.42
2023-01-29T19:11:51.408Z,20.85
2023-01-29T19:14:19.013Z,23.42
2023-01-29T19:19:26.294Z,21.55
2023-01-29T19:22:01.665Z,20.55
2023-01-29T19:24:28.157Z,22.13
2023-01-29T19:26:54.811Z,25.50
2023-01-29T19:32:02.072Z,23.30
2023-01-29T19:34:28.617Z,24.85
2023-01-29T19:36:55.116Z,21.88
2023-01-29T19:39:21.680Z,17.15
2023-01-29T19:41:48.309Z,22.63
2023-01-29T19:44:14.818Z,26.58
2023-01-29T19:46:41.612Z,27.95
2023-01-29T19:49:10.649Z,24.48
2023-01-29T19:51:37.157Z,22.90
2023-01-29T19:54:04.176Z,24.38
2023-01-29T19:56:30.657Z,24.75
2023-01-29T19:58:57.417Z,26.40
2023-01-29T20:01:24.999Z,26.63
2023-01-29T20:03:52.031Z,26.30
2023-01-29T20:06:22.161Z,27.20
2023-01-29T20:08:48.741Z,29.52
2023-01-29T20:11:17.625Z,26.40
2023-01-29T20:13:47.614Z,28.83
2023-01-29T20:16:14.318Z,27.50
2023-01-29T20:18:40.834Z,28.73
2023-01-29T20:21:10.290Z,28.10
2023-01-29T20:23:38.951Z,32.25
2023-01-29T20:26:19.021Z,31.13
2023-01-29T20:28:47.770Z,28.65
2023-01-29T20:31:15.002Z,34.63
2023-01-29T20:33:41.949Z,35.28
2023-01-29T20:36:10.714Z,31.45
2023-01-29T20:38:37.441Z,35.45
2023-01-29T20:41:08.138Z,35.67
2023-01-29T20:43:34.898Z,34.30
2023-01-29T20:46:03.635Z,37.72
2023-01-29T20:48:31.091Z,34.90
2023-01-29T20:51:04.260Z,34.63
2023-01-29T20:53:30.799Z,31.85
2023-01-29T20:55:57.488Z,28.63
2023-01-29T20:58:24.841Z,33.88
2023-01-29T21:00:53.164Z,27.80
2023-01-29T21:03:19.683Z,35.47
2023-01-29T21:05:46.474Z,36.05
2023-01-29T21:08:13.035Z,33.42
2023-01-29T21:10:39.780Z,34.85
2023-01-29T21:13:06.928Z,34.40
2023-01-29T21:15:33.440Z,35.35
2023-01-29T21:18:04.190Z,33.95
2023-01-29T21:20:31.518Z,34.15
2023-01-29T21:22:58.022Z,30.30
2023-01-29T21:25:24.760Z,32.30
2023-01-29T21:27:52.334Z,36.75
2023-01-29T21:30:20.535Z,34.70
2023-01-29T21:32:47.211Z,31.60
2023-01-29T21:35:14.939Z,29.45
2023-01-29T21:37:41.878Z,31.42
2023-01-29T21:40:10.125Z,32.92
2023-01-29T21:42:55.458Z,29.55
2023-01-29T21:45:23.234Z,29.33
2023-01-29T21:47:49.752Z,30.67
2023-01-29T21:50:16.938Z,29.63
2023-01-29T21:52:43.750Z,27.63
2023-01-29T21:55:10.290Z,26.98
2023-01-29T21:57:36.919Z,31.48
2023-01-29T22:00:04.182Z,31.80
2023-01-29T22:02:32.193Z,20.38
2023-01-29T22:05:16.601Z,27.58
2023-01-29T22:07:46.338Z,26.08
2023-01-29T22:12:40.111Z,24.98
2023-01-29T22:15:07.642Z,27.37
2023-01-29T22:17:34.335Z,29.95
2023-01-29T22:20:01.157Z,31.85
2023-01-29T22:22:27.714Z,29.88
2023-01-29T22:24:55.170Z,31.95
2023-01-29T22:27:21.850Z,34.83
2023-01-29T22:29:48.368Z,37.20
2023-01-29T22:32:15.048Z,33.42
2023-01-29T22:34:43.045Z,30.58
2023-01-29T22:39:36.087Z,35.35
2023-01-29T22:42:03.967Z,29.73
2023-01-29T22:44:30.644Z,34.72
2023-01-29T22:46:58.613Z,29.80
2023-01-29T22:52:10.050Z,32.25
2023-01-29T22:54:42.520Z,32.78
2023-01-29T22:57:11.480Z,37.97
2023-01-29T22:59:39.545Z,32.08
2023-01-29T23:02:07.300Z,35.90
2023-01-29T23:04:34.254Z,37.90
2023-01-29T23:07:00.756Z,34.03
2023-01-29T23:09:27.400Z,35.03
2023-01-29T23:11:53.986Z,31.70
2023-01-29T23:14:23.449Z,28.25
2023-01-29T23:16:50.411Z,31.77
2023-01-29T23:19:18.446Z,32.33
2023-01-29T23:21:44.990Z,30.40
2023-01-29T23:24:13.789Z,33.88
2023-01-29T23:26:58.671Z,32.95
2023-01-29T23:29:25.681Z,36.63
2023-01-29T23:31:53.821Z,32.80
2023-01-29T23:34:22.217Z,32.40
2023-01-29T23:36:49.490Z,30.02
2023-01-29T23:39:16.423Z,17.92
2023-01-29T23:41:44.579Z,36.22
2023-01-29T23:44:11.150Z,25.17
2023-01-29T23:46:37.761Z,20.85
2023-01-29T23:49:04.586Z,23.55
2023-01-29T23:51:31.204Z,29.00
2023-01-29T23:53:57.930Z,24.75
2023-01-29T23:56:24.793Z,14.07
2023-01-29T23:58:56.096Z,19.87
